createdAt,value
2022-12-16T00:00:15.945Z,2.42
2022-12-16T00:02:43.662Z,2.30
2022-12-16T00:05:11.137Z,2.14
2022-12-16T00:07:38.482Z,2.23
2022-12-16T00:10:07.314Z,2.17
2022-12-16T00:12:35.639Z,2.37
2022-12-16T00:15:02.990Z,2.38
2022-12-16T00:17:30.628Z,2.36
2022-12-16T00:19:57.965Z,2.42
2022-12-16T00:22:25.314Z,2.49
2022-12-16T00:24:53.027Z,2.75
2022-12-16T00:27:20.390Z,2.46
2022-12-16T00:29:47.743Z,2.49
2022-12-16T00:32:15.408Z,2.46
2022-12-16T00:34:42.767Z,2.33
2022-12-16T00:37:11.830Z,2.32
2022-12-16T00:39:39.451Z,2.43
2022-12-16T00:42:06.856Z,2.59
2022-12-16T00:44:34.269Z,2.76
2022-12-16T00:47:01.897Z,2.83
2022-12-16T00:49:29.400Z,2.88
2022-12-16T00:51:56.756Z,2.76
2022-12-16T00:54:24.381Z,2.79
2022-12-16T00:56:51.732Z,2.57
2022-12-16T00:59:19.425Z,2.77
2022-12-16T01:01:47.186Z,2.52
2022-12-16T01:04:14.699Z,2.26
2022-12-16T01:06:42.064Z,2.34
2022-12-16T01:09:09.749Z,2.36
2022-12-16T01:11:37.092Z,2.83
2022-12-16T01:14:04.911Z,3.12
2022-12-16T01:16:32.616Z,2.66
2022-12-16T01:19:00.088Z,2.65
2022-12-16T01:21:27.442Z,3.03
2022-12-16T01:23:55.145Z,2.75
2022-12-16T01:26:22.759Z,2.87
2022-12-16T01:28:50.100Z,2.58
2022-12-16T01:31:19.449Z,2.60
2022-12-16T01:33:47.106Z,2.44
2022-12-16T01:36:14.674Z,2.67
2022-12-16T01:38:44.329Z,2.75
2022-12-16T01:41:13.665Z,2.61
2022-12-16T01:43:42.368Z,2.40
2022-12-16T01:46:13.096Z,2.57
2022-12-16T01:48:47.889Z,2.39
2022-12-16T01:51:24.398Z,2.48
2022-12-16T01:53:56.142Z,2.63
2022-12-16T01:56:25.620Z,2.56
2022-12-16T01:58:53.171Z,2.69
2022-12-16T02:01:23.032Z,2.78
2022-12-16T02:03:52.845Z,2.67
2022-12-16T02:06:20.577Z,2.38
2022-12-16T02:08:52.569Z,2.66
2022-12-16T02:11:29.390Z,2.44
2022-12-16T02:14:28.718Z,2.55
2022-12-16T02:17:05.055Z,2.54
2022-12-16T02:19:57.205Z,2.32
2022-12-16T02:22:53.254Z,2.36
2022-12-16T02:25:26.157Z,2.44
2022-12-16T02:28:01.342Z,2.41
2022-12-16T02:30:35.546Z,2.51
2022-12-16T02:33:14.740Z,2.53
2022-12-16T02:35:52.995Z,2.67
2022-12-16T02:39:04.375Z,2.78
2022-12-16T02:41:53.442Z,2.99
2022-12-16T02:44:46.694Z,2.88
2022-12-16T02:47:14.235Z,2.82
2022-12-16T02:49:50.364Z,3.02
2022-12-16T02:52:20.928Z,2.95
2022-12-16T02:54:51.387Z,2.56
2022-12-16T02:57:55.949Z,2.64
2022-12-16T03:00:24.567Z,2.98
2022-12-16T03:03:02.864Z,2.98
2022-12-16T03:05:50.883Z,2.82
2022-12-16T03:08:27.070Z,2.70
2022-12-16T03:10:58.147Z,2.51
2022-12-16T03:13:25.770Z,2.55
2022-12-16T03:15:54.020Z,2.85
2022-12-16T03:18:22.417Z,2.91
2022-12-16T03:21:00.236Z,2.77
2022-12-16T03:23:34.430Z,2.50
2022-12-16T03:26:21.913Z,2.59
2022-12-16T03:28:57.907Z,3.05
2022-12-16T03:31:41.938Z,3.17
2022-12-16T03:34:33.011Z,2.67
2022-12-16T03:37:04.214Z,2.78
2022-12-16T03:39:35.245Z,2.88
2022-12-16T03:42:03.750Z,2.71
2022-12-16T03:44:31.230Z,2.80
2022-12-16T03:46:58.886Z,2.82
2022-12-16T03:49:26.333Z,2.83
2022-12-16T03:51:54.970Z,3.00
2022-12-16T03:54:23.533Z,3.03
2022-12-16T03:56:50.852Z,3.23
2022-12-16T03:59:18.266Z,3.16
2022-12-16T04:01:45.971Z,3.25
2022-12-16T04:04:13.673Z,2.69
2022-12-16T04:06:41.006Z,2.62
2022-12-16T04:09:08.496Z,2.99
2022-12-16T04:11:54.722Z,2.72
2022-12-16T04:14:40.622Z,2.57
2022-12-16T04:17:28.882Z,2.64
2022-12-16T04:20:14.897Z,3.10
2022-12-16T04:23:02.107Z,2.80
2022-12-16T04:25:35.744Z,3.26
2022-12-16T04:28:03.390Z,3.20
2022-12-16T04:30:34.672Z,3.03
2022-12-16T04:33:27.358Z,3.25
2022-12-16T04:36:13.695Z,2.91
2022-12-16T04:38:59.753Z,2.84
2022-12-16T04:41:46.012Z,2.91
2022-12-16T04:44:32.452Z,2.94
2022-12-16T04:47:19.016Z,3.57
2022-12-16T04:50:04.886Z,3.31
2022-12-16T04:52:51.012Z,3.64
2022-12-16T04:55:36.849Z,3.37
2022-12-16T04:58:23.085Z,3.99
2022-12-16T05:01:09.873Z,3.67
2022-12-16T05:03:56.120Z,3.70
2022-12-16T05:06:42.013Z,3.60
2022-12-16T05:09:28.055Z,3.70
2022-12-16T05:12:14.049Z,3.60
2022-12-16T05:15:00.093Z,3.67
2022-12-16T05:17:46.249Z,4.07
2022-12-16T05:20:32.670Z,4.07
2022-12-16T05:23:18.682Z,3.69
2022-12-16T05:26:04.541Z,3.79
2022-12-16T05:28:50.496Z,3.85
2022-12-16T05:31:37.035Z,3.69
2022-12-16T05:34:22.813Z,3.92
2022-12-16T05:37:08.986Z,3.82
2022-12-16T05:39:55.052Z,3.84
2022-12-16T05:42:41.264Z,4.18
2022-12-16T05:45:27.403Z,3.76
2022-12-16T05:48:14.477Z,3.99
2022-12-16T05:51:00.306Z,4.21
2022-12-16T05:53:56.905Z,4.43
2022-12-16T05:56:42.670Z,4.07
2022-12-16T05:59:28.915Z,3.87
2022-12-16T06:02:14.996Z,3.95
2022-12-16T06:05:01.390Z,3.98
2022-12-16T06:07:47.464Z,3.99
2022-12-16T06:10:33.706Z,3.67
2022-12-16T06:13:19.502Z,4.10
2022-12-16T06:16:08.952Z,4.06
2022-12-16T06:18:55.502Z,4.27
2022-12-16T06:21:41.499Z,4.45
2022-12-16T06:24:27.547Z,4.17
2022-12-16T06:27:13.563Z,4.17
2022-12-16T06:29:59.333Z,4.41
2022-12-16T06:32:45.404Z,4.06
2022-12-16T06:35:31.351Z,4.38
2022-12-16T06:38:17.756Z,4.47
2022-12-16T06:41:03.462Z,4.27
2022-12-16T06:43:49.450Z,4.29
2022-12-16T06:46:35.420Z,4.18
2022-12-16T06:49:21.635Z,4.49
2022-12-16T06:52:07.804Z,4.36
2022-12-16T06:54:53.908Z,4.40
2022-12-16T06:57:39.881Z,4.53
2022-12-16T07:00:26.583Z,4.22
2022-12-16T07:03:12.639Z,4.55
2022-12-16T07:05:58.902Z,4.92
2022-12-16T07:08:45.011Z,4.89
2022-12-16T07:11:31.283Z,4.88
2022-12-16T07:14:17.258Z,5.31
2022-12-16T07:17:03.596Z,4.81
2022-12-16T07:19:49.519Z,4.80
2022-12-16T07:22:35.865Z,5.23
2022-12-16T07:25:21.966Z,5.26
2022-12-16T07:28:13.817Z,5.33
2022-12-16T07:31:02.279Z,5.41
2022-12-16T07:33:48.657Z,4.72
2022-12-16T07:36:34.702Z,5.04
2022-12-16T07:39:21.003Z,5.26
2022-12-16T07:42:06.986Z,5.38
2022-12-16T07:45:03.989Z,5.37
2022-12-16T07:47:50.527Z,5.22
2022-12-16T07:50:37.372Z,5.16
2022-12-16T07:53:25.624Z,5.14
2022-12-16T07:56:15.858Z,4.92
2022-12-16T07:59:01.791Z,5.07
2022-12-16T08:01:48.053Z,5.18
2022-12-16T08:04:34.266Z,5.23
2022-12-16T08:07:20.315Z,5.04
2022-12-16T08:10:06.562Z,4.90
2022-12-16T08:12:52.829Z,5.09
2022-12-16T08:15:38.830Z,5.69
2022-12-16T08:18:24.821Z,5.65
2022-12-16T08:21:11.061Z,5.17
2022-12-16T08:23:57.137Z,5.66
2022-12-16T08:26:43.134Z,5.86
2022-12-16T08:29:45.783Z,5.86
2022-12-16T08:32:33.936Z,6.03
2022-12-16T08:35:19.860Z,5.27
2022-12-16T08:38:12.294Z,5.82
2022-12-16T08:41:01.795Z,6.23
2022-12-16T08:43:52.635Z,6.13
2022-12-16T08:46:39.385Z,6.00
2022-12-16T08:49:25.797Z,5.87
2022-12-16T08:52:11.702Z,6.27
2022-12-16T08:54:58.035Z,6.45
2022-12-16T08:57:43.976Z,6.23
2022-12-16T09:00:30.885Z,6.25
2022-12-16T09:03:18.225Z,6.80
2022-12-16T09:06:04.515Z,6.43
2022-12-16T09:08:51.168Z,6.34
2022-12-16T09:11:37.446Z,6.90
2022-12-16T09:14:23.727Z,6.21
2022-12-16T09:17:09.845Z,5.94
2022-12-16T09:19:55.804Z,6.50
2022-12-16T09:22:41.750Z,7.01
2022-12-16T09:25:27.917Z,7.31
2022-12-16T09:28:13.883Z,7.49
2022-12-16T09:30:59.973Z,7.26
2022-12-16T09:33:46.354Z,6.84
2022-12-16T09:36:32.186Z,6.47
2022-12-16T09:39:18.623Z,6.49
2022-12-16T09:42:27.837Z,7.39
2022-12-16T09:45:36.096Z,7.32
2022-12-16T09:48:31.517Z,7.51
2022-12-16T09:51:17.906Z,7.36
2022-12-16T09:54:03.880Z,7.32
2022-12-16T09:56:55.179Z,7.57
2022-12-16T09:59:46.298Z,7.57
2022-12-16T10:02:34.616Z,8.02
2022-12-16T10:05:21.222Z,7.96
2022-12-16T10:08:17.160Z,7.40
2022-12-16T10:11:14.208Z,7.43
2022-12-16T10:14:07.832Z,7.47
2022-12-16T10:17:03.335Z,7.37
2022-12-16T10:19:52.502Z,7.61
2022-12-16T10:22:56.233Z,8.07
2022-12-16T10:25:52.620Z,7.59
2022-12-16T10:28:54.419Z,7.55
2022-12-16T10:31:41.235Z,6.77
2022-12-16T10:34:33.766Z,7.25
2022-12-16T10:37:21.246Z,7.60
2022-12-16T10:40:11.541Z,7.62
2022-12-16T10:43:22.207Z,7.86
2022-12-16T10:46:10.713Z,7.73
2022-12-16T10:48:57.307Z,7.63
2022-12-16T10:51:46.540Z,7.59
2022-12-16T10:54:46.919Z,7.95
2022-12-16T10:57:51.845Z,7.72
2022-12-16T11:00:39.861Z,7.00
2022-12-16T11:03:41.558Z,7.12
2022-12-16T11:06:28.474Z,7.54
2022-12-16T11:09:14.268Z,6.99
2022-12-16T11:12:00.507Z,7.07
2022-12-16T11:15:28.261Z,6.91
2022-12-16T11:18:24.848Z,6.89
2022-12-16T11:21:37.034Z,7.20
2022-12-16T11:24:38.215Z,7.75
2022-12-16T11:27:32.597Z,7.37
2022-12-16T11:30:32.314Z,7.56
2022-12-16T11:33:21.636Z,7.74
2022-12-16T11:36:12.713Z,7.44
2022-12-16T11:39:02.527Z,7.69
2022-12-16T11:41:52.663Z,7.87
2022-12-16T11:44:43.829Z,7.29
2022-12-16T11:47:54.605Z,7.54
2022-12-16T11:50:43.520Z,7.67
2022-12-16T11:53:56.609Z,7.77
2022-12-16T11:56:45.152Z,7.55
2022-12-16T11:59:51.178Z,7.52
2022-12-16T12:02:43.305Z,7.53
2022-12-16T12:05:32.168Z,7.16
2022-12-16T12:08:29.403Z,6.26
2022-12-16T12:11:37.700Z,6.41
2022-12-16T12:14:34.344Z,6.02
2022-12-16T12:17:37.925Z,6.28
2022-12-16T12:21:01.506Z,6.55
2022-12-16T12:24:16.848Z,5.73
2022-12-16T12:27:17.073Z,6.24
2022-12-16T12:30:26.601Z,6.59
2022-12-16T12:33:43.678Z,6.64
2022-12-16T12:36:38.243Z,7.16
2022-12-16T12:39:44.054Z,6.85
2022-12-16T12:42:41.151Z,6.99
2022-12-16T12:45:36.221Z,6.78
2022-12-16T12:48:47.664Z,7.07
2022-12-16T12:51:48.211Z,7.24
2022-12-16T12:54:55.488Z,7.37
2022-12-16T12:57:44.612Z,7.47
2022-12-16T13:00:41.761Z,7.51
2022-12-16T13:03:37.688Z,7.73
2022-12-16T13:06:25.211Z,7.63
2022-12-16T13:09:11.387Z,7.23
2022-12-16T13:12:18.831Z,7.44
2022-12-16T13:15:13.453Z,6.80
2022-12-16T13:18:18.294Z,6.93
2022-12-16T13:21:12.478Z,6.64
2022-12-16T13:24:02.893Z,7.46
2022-12-16T13:26:51.181Z,7.66
2022-12-16T13:29:48.396Z,7.51
2022-12-16T13:32:42.493Z,7.49
2022-12-16T13:35:28.760Z,7.37
2022-12-16T13:38:37.122Z,7.33
2022-12-16T13:41:25.619Z,7.33
2022-12-16T13:44:16.885Z,7.26
2022-12-16T13:47:11.729Z,7.36
2022-12-16T13:50:01.864Z,6.93
2022-12-16T13:52:58.280Z,7.17
2022-12-16T13:55:56.685Z,7.07
2022-12-16T13:58:57.462Z,6.60
2022-12-16T14:02:10.735Z,6.22
2022-12-16T14:05:01.964Z,6.39
2022-12-16T14:07:51.353Z,6.83
2022-12-16T14:10:49.398Z,6.78
2022-12-16T14:14:17.240Z,6.70
2022-12-16T14:17:10.278Z,6.30
2022-12-16T14:20:11.038Z,6.32
2022-12-16T14:23:47.144Z,5.53
2022-12-16T14:26:34.404Z,5.26
2022-12-16T14:29:22.259Z,5.27
2022-12-16T14:32:08.286Z,6.05
2022-12-16T14:34:55.552Z,6.53
2022-12-16T14:37:48.469Z,7.13
2022-12-16T14:40:48.078Z,7.13
2022-12-16T14:43:43.027Z,7.13
2022-12-16T14:46:49.948Z,6.94
2022-12-16T14:49:40.525Z,7.39
2022-12-16T14:52:37.389Z,6.64
2022-12-16T14:55:46.460Z,6.51
2022-12-16T14:58:35.341Z,6.41
2022-12-16T15:01:33.587Z,6.40
2022-12-16T15:04:21.618Z,6.73
2022-12-16T15:07:09.371Z,6.99
2022-12-16T15:10:02.467Z,6.49
2022-12-16T15:12:52.623Z,6.70
2022-12-16T15:15:56.300Z,6.93
2022-12-16T15:18:58.079Z,6.42
2022-12-16T15:21:44.389Z,6.23
2022-12-16T15:24:35.546Z,6.24
2022-12-16T15:27:43.470Z,5.98
2022-12-16T15:30:53.339Z,5.76
2022-12-16T15:33:47.936Z,5.74
2022-12-16T15:36:54.940Z,5.57
2022-12-16T15:39:52.847Z,5.46
2022-12-16T15:42:47.523Z,5.07
2022-12-16T15:45:48.569Z,5.43
2022-12-16T15:48:47.691Z,5.49
2022-12-16T15:51:50.267Z,5.32
2022-12-16T15:54:41.408Z,5.39
2022-12-16T15:57:48.734Z,5.17
2022-12-16T16:00:47.919Z,5.34
2022-12-16T16:03:47.030Z,5.23
2022-12-16T16:06:33.985Z,4.87
2022-12-16T16:09:20.756Z,5.05
2022-12-16T16:12:06.854Z,4.82
2022-12-16T16:14:53.233Z,5.21
2022-12-16T16:17:41.212Z,5.74
2022-12-16T16:20:33.298Z,5.38
2022-12-16T16:23:19.327Z,5.77
2022-12-16T16:26:07.037Z,5.42
2022-12-16T16:28:53.914Z,5.36
2022-12-16T16:31:40.250Z,4.95
2022-12-16T16:34:26.493Z,4.69
2022-12-16T16:37:14.838Z,5.34
2022-12-16T16:40:01.879Z,5.42
2022-12-16T16:42:48.769Z,5.33
2022-12-16T16:45:34.835Z,5.57
2022-12-16T16:48:32.379Z,5.38
2022-12-16T16:51:19.527Z,4.92
2022-12-16T16:54:05.997Z,5.11
2022-12-16T16:56:53.449Z,4.76
2022-12-16T16:59:43.230Z,4.99
2022-12-16T17:02:41.218Z,5.21
2022-12-16T17:05:29.417Z,5.09
2022-12-16T17:08:15.959Z,4.88
2022-12-16T17:11:02.290Z,4.24
2022-12-16T17:13:48.281Z,4.81
2022-12-16T17:16:34.611Z,5.17
2022-12-16T17:19:21.640Z,5.49
2022-12-16T17:22:07.906Z,5.03
2022-12-16T17:24:54.851Z,4.63
2022-12-16T17:27:43.081Z,4.56
2022-12-16T17:30:40.692Z,4.70
2022-12-16T17:33:30.272Z,5.11
2022-12-16T17:36:16.651Z,5.23
2022-12-16T17:39:03.091Z,4.30
2022-12-16T17:41:50.829Z,4.71
2022-12-16T17:44:37.319Z,4.39
2022-12-16T17:47:23.414Z,4.25
2022-12-16T17:50:09.493Z,3.96
2022-12-16T17:52:55.230Z,3.54
2022-12-16T17:55:41.727Z,4.39
2022-12-16T17:58:30.831Z,3.86
2022-12-16T18:01:22.618Z,3.69
2022-12-16T18:04:09.912Z,3.48
2022-12-16T18:07:03.592Z,4.00
2022-12-16T18:09:49.681Z,3.82
2022-12-16T18:12:36.192Z,3.66
2022-12-16T18:15:22.559Z,3.59
2022-12-16T18:18:08.880Z,3.99
2022-12-16T18:20:55.364Z,4.02
2022-12-16T18:23:41.676Z,3.99
2022-12-16T18:26:28.734Z,4.50
2022-12-16T18:29:14.864Z,5.10
2022-12-16T18:32:01.328Z,4.85
2022-12-16T18:34:46.989Z,4.03
2022-12-16T18:37:35.303Z,4.15
2022-12-16T18:40:21.651Z,4.42
2022-12-16T18:43:07.771Z,4.11
2022-12-16T18:45:54.653Z,3.69
2022-12-16T18:48:41.483Z,3.99
2022-12-16T18:51:27.582Z,4.37
2022-12-16T18:54:19.045Z,4.80
2022-12-16T18:57:05.564Z,4.61
2022-12-16T18:59:52.331Z,4.54
2022-12-16T19:02:38.969Z,4.75
2022-12-16T19:05:26.040Z,4.60
2022-12-16T19:08:14.571Z,4.75
2022-12-16T19:11:01.654Z,4.79
2022-12-16T19:13:47.914Z,4.88
2022-12-16T19:16:34.616Z,5.05
2022-12-16T19:19:20.918Z,5.33
2022-12-16T19:22:06.969Z,5.23
2022-12-16T19:24:56.183Z,4.45
2022-12-16T19:27:43.828Z,4.41
2022-12-16T19:30:30.478Z,4.72
2022-12-16T19:33:16.844Z,4.29
2022-12-16T19:36:02.958Z,4.71
2022-12-16T19:38:49.357Z,4.93
2022-12-16T19:41:36.528Z,5.01
2022-12-16T19:44:23.531Z,5.00
2022-12-16T19:47:09.579Z,4.23
2022-12-16T19:49:56.079Z,4.54
2022-12-16T19:52:42.919Z,4.01
2022-12-16T19:55:30.216Z,4.16
2022-12-16T19:58:33.782Z,4.06
2022-12-16T20:01:27.880Z,4.04
2022-12-16T20:04:17.741Z,3.45
2022-12-16T20:07:04.884Z,3.54
2022-12-16T20:09:51.771Z,3.56
2022-12-16T20:12:38.117Z,3.15
2022-12-16T20:15:24.972Z,3.63
2022-12-16T20:18:19.017Z,2.94
2022-12-16T20:21:05.354Z,3.36
2022-12-16T20:23:51.995Z,3.26
2022-12-16T20:26:41.572Z,3.24
2022-12-16T20:29:28.201Z,3.25
2022-12-16T20:32:14.516Z,3.16
2022-12-16T20:35:00.529Z,2.98
2022-12-16T20:37:46.913Z,3.83
2022-12-16T20:40:32.838Z,2.76
2022-12-16T20:43:19.137Z,3.22
2022-12-16T20:46:05.095Z,3.58
2022-12-16T20:48:52.015Z,3.62
2022-12-16T20:51:38.496Z,3.30
2022-12-16T20:54:44.816Z,3.64
2022-12-16T20:57:30.640Z,3.39
2022-12-16T21:00:17.542Z,3.42
2022-12-16T21:03:11.019Z,3.57
2022-12-16T21:05:57.934Z,3.64
2022-12-16T21:08:43.809Z,3.83
2022-12-16T21:11:30.350Z,3.71
2022-12-16T21:14:17.392Z,3.56
2022-12-16T21:17:04.051Z,3.50
2022-12-16T21:19:50.719Z,3.01
2022-12-16T21:22:38.704Z,2.50
2022-12-16T21:25:25.981Z,2.77
2022-12-16T21:28:18.744Z,2.95
2022-12-16T21:31:04.872Z,2.48
2022-12-16T21:33:51.847Z,2.87
2022-12-16T21:36:37.984Z,3.37
2022-12-16T21:39:24.250Z,2.87
2022-12-16T21:42:10.353Z,2.74
2022-12-16T21:44:56.802Z,3.11
2022-12-16T21:47:43.428Z,3.27
2022-12-16T21:50:29.839Z,2.99
2022-12-16T21:53:15.893Z,2.98
2022-12-16T21:56:02.263Z,3.08
2022-12-16T21:58:48.286Z,3.13
2022-12-16T22:01:34.570Z,3.00
2022-12-16T22:04:40.818Z,2.60
2022-12-16T22:07:27.277Z,2.63
2022-12-16T22:10:13.385Z,3.22
2022-12-16T22:12:59.137Z,2.88
2022-12-16T22:15:45.570Z,3.06
2022-12-16T22:18:31.510Z,2.78
2022-12-16T22:21:22.805Z,2.73
2022-12-16T22:24:09.254Z,2.67
2022-12-16T22:26:55.493Z,2.54
2022-12-16T22:29:42.945Z,2.80
2022-12-16T22:32:29.196Z,2.80
2022-12-16T22:35:15.811Z,2.97
2022-12-16T22:38:02.027Z,2.63
2022-12-16T22:40:48.097Z,2.53
2022-12-16T22:43:34.721Z,2.19
2022-12-16T22:46:24.025Z,2.78
2022-12-16T22:49:10.209Z,2.26
2022-12-16T22:51:56.138Z,1.95
2022-12-16T22:54:42.842Z,2.15
2022-12-16T22:57:28.742Z,2.32
2022-12-16T23:00:15.103Z,2.09
2022-12-16T23:03:00.991Z,2.48
2022-12-16T23:05:47.400Z,2.48
2022-12-16T23:08:33.309Z,2.44
2022-12-16T23:11:19.393Z,2.38
2022-12-16T23:14:05.410Z,2.69
2022-12-16T23:16:51.696Z,2.39
2022-12-16T23:19:39.312Z,2.26
2022-12-16T23:22:25.673Z,2.19
2022-12-16T23:25:11.458Z,2.60
2022-12-16T23:27:57.537Z,1.92
2022-12-16T23:30:43.577Z,2.07
2022-12-16T23:33:29.700Z,2.63
2022-12-16T23:36:15.642Z,2.10
2022-12-16T23:39:02.008Z,1.95
2022-12-16T23:41:47.970Z,1.46
2022-12-16T23:44:34.329Z,1.36
2022-12-16T23:47:20.397Z,1.53
2022-12-16T23:50:06.466Z,1.28
2022-12-16T23:52:53.979Z,1.44
2022-12-16T23:55:42.484Z,1.33
2022-12-16T23:58:28.492Z,1.28
